createdAt,value
2023-04-15T00:01:19.850Z,2.67
2023-04-15T00:03:50.105Z,5.30
2023-04-15T00:06:19.594Z,2.30
2023-04-15T00:08:48.251Z,4.45
2023-04-15T00:13:45.806Z,5.55
2023-04-15T00:16:14.141Z,3.90
2023-04-15T00:18:42.765Z,3.83
2023-04-15T00:23:41.276Z,2.05
2023-04-15T00:26:10.074Z,2.97
2023-04-15T00:28:38.836Z,3.75
2023-04-15T00:31:07.506Z,3.30
2023-04-15T00:36:08.662Z,5.45
2023-04-15T00:38:39.743Z,2.45
2023-04-15T00:41:08.339Z,6.75
2023-04-15T00:43:36.746Z,2.70
2023-04-15T00:46:07.707Z,2.88
2023-04-15T00:48:37.041Z,2.15
2023-04-15T00:51:05.513Z,3.63
2023-04-15T00:53:34.624Z,2.95
2023-04-15T00:58:32.638Z,2.25
2023-04-15T01:01:01.515Z,2.60
2023-04-15T01:03:31.857Z,2.75
2023-04-15T01:06:04.023Z,4.47
2023-04-15T01:08:33.004Z,2.00
2023-04-15T01:13:35.920Z,1.75
2023-04-15T01:16:04.614Z,2.00
2023-04-15T01:21:03.810Z,4.60
2023-04-15T01:23:34.113Z,3.05
2023-04-15T01:26:04.535Z,3.60
2023-04-15T01:28:33.565Z,2.50
2023-04-15T01:31:09.268Z,3.42
2023-04-15T01:33:41.429Z,2.30
2023-04-15T01:36:28.246Z,7.13
2023-04-15T01:38:57.293Z,2.53
2023-04-15T01:41:28.893Z,2.45
2023-04-15T01:43:58.467Z,2.95
2023-04-15T01:46:28.264Z,6.55
2023-04-15T01:48:58.237Z,2.20
2023-04-15T01:51:28.656Z,3.20
2023-04-15T01:53:58.271Z,1.83
2023-04-15T01:56:29.934Z,4.90
2023-04-15T01:58:59.945Z,2.83
2023-04-15T02:01:30.405Z,2.40
2023-04-15T02:04:02.859Z,3.22
2023-04-15T02:06:34.561Z,3.20
2023-04-15T02:09:04.466Z,3.00
2023-04-15T02:11:37.343Z,3.83
2023-04-15T02:14:07.294Z,1.85
2023-04-15T02:16:37.040Z,2.20
2023-04-15T02:19:06.691Z,2.40
2023-04-15T02:21:36.676Z,2.30
2023-04-15T02:24:06.685Z,2.92
2023-04-15T02:26:37.700Z,5.13
2023-04-15T02:29:33.070Z,2.53
2023-04-15T02:32:03.985Z,2.58
2023-04-15T02:34:33.822Z,5.75
2023-04-15T02:37:04.037Z,3.03
2023-04-15T02:39:33.719Z,2.83
2023-04-15T02:42:06.096Z,2.65
2023-04-15T02:44:36.682Z,3.03
2023-04-15T02:47:07.639Z,3.92
2023-04-15T02:49:37.328Z,2.42
2023-04-15T02:52:07.968Z,3.33
2023-04-15T02:54:37.701Z,2.97
2023-04-15T02:57:08.744Z,3.35
2023-04-15T02:59:39.549Z,3.30
2023-04-15T03:02:09.334Z,2.53
2023-04-15T03:04:39.923Z,1.98
2023-04-15T03:07:09.691Z,4.28
2023-04-15T03:09:40.542Z,2.88
2023-04-15T03:12:12.001Z,2.40
2023-04-15T03:14:41.745Z,6.80
2023-04-15T03:17:11.619Z,1.83
2023-04-15T03:19:41.948Z,2.58
2023-04-15T03:22:12.308Z,2.92
2023-04-15T03:24:41.989Z,3.78
2023-04-15T03:27:13.348Z,3.05
2023-04-15T03:29:43.395Z,1.75
2023-04-15T03:32:15.285Z,3.13
2023-04-15T03:34:45.248Z,6.05
2023-04-15T03:37:14.904Z,4.82
2023-04-15T03:39:44.608Z,2.53
2023-04-15T03:42:15.836Z,7.70
2023-04-15T03:44:45.506Z,6.95
2023-04-15T03:47:15.260Z,13.32
2023-04-15T03:49:44.960Z,3.75
2023-04-15T03:52:14.598Z,4.90
2023-04-15T03:54:44.162Z,4.15
2023-04-15T03:57:15.290Z,4.35
2023-04-15T03:59:45.142Z,4.20
2023-04-15T04:02:14.931Z,5.10
2023-04-15T04:04:44.950Z,8.02
2023-04-15T04:07:17.798Z,5.07
2023-04-15T04:09:47.578Z,4.70
2023-04-15T04:12:18.850Z,4.75
2023-04-15T04:14:48.522Z,7.95
2023-04-15T04:17:20.150Z,6.13
2023-04-15T04:19:49.991Z,6.05
2023-04-15T04:22:19.781Z,5.50
2023-04-15T04:24:49.337Z,4.90
2023-04-15T04:27:20.449Z,4.43
2023-04-15T04:29:50.239Z,3.15
2023-04-15T04:32:39.626Z,4.47
2023-04-15T04:35:10.297Z,2.25
2023-04-15T04:37:40.113Z,4.45
2023-04-15T04:40:10.852Z,6.90
2023-04-15T04:42:41.980Z,5.10
2023-04-15T04:45:12.071Z,3.45
2023-04-15T04:47:41.790Z,4.22
2023-04-15T04:50:11.967Z,5.90
2023-04-15T04:52:41.702Z,4.30
2023-04-15T04:55:11.361Z,3.67
2023-04-15T04:57:43.548Z,3.67
2023-04-15T05:00:14.326Z,5.00
2023-04-15T05:02:44.336Z,2.60
2023-04-15T05:05:18.798Z,6.07
2023-04-15T05:07:49.371Z,2.55
2023-04-15T05:10:20.442Z,4.05
2023-04-15T05:12:52.158Z,5.00
2023-04-15T05:15:21.996Z,3.58
2023-04-15T05:17:54.601Z,5.20
2023-04-15T05:20:24.570Z,4.55
2023-04-15T05:22:54.324Z,2.70
2023-04-15T05:25:24.116Z,2.55
2023-04-15T05:27:55.466Z,7.35
2023-04-15T05:30:25.257Z,4.05
2023-04-15T05:32:55.027Z,5.90
2023-04-15T05:35:24.771Z,3.80
2023-04-15T05:37:54.391Z,2.97
2023-04-15T05:40:24.481Z,8.45
2023-04-15T05:42:55.644Z,3.40
2023-04-15T05:45:25.425Z,5.53
2023-04-15T05:47:55.258Z,4.30
2023-04-15T05:50:25.852Z,4.10
2023-04-15T05:52:56.152Z,4.60
2023-04-15T05:55:25.919Z,3.25
2023-04-15T05:57:57.335Z,5.15
2023-04-15T06:00:27.504Z,4.07
2023-04-15T06:02:58.070Z,3.75
2023-04-15T06:05:28.273Z,4.15
2023-04-15T06:07:58.055Z,3.80
2023-04-15T06:10:27.879Z,4.03
2023-04-15T06:12:59.121Z,9.30
2023-04-15T06:15:28.946Z,2.67
2023-04-15T06:17:59.017Z,3.53
2023-04-15T06:20:31.463Z,4.30
2023-04-15T06:25:59.670Z,4.63
2023-04-15T06:31:21.711Z,3.65
2023-04-15T06:33:57.423Z,4.53
2023-04-15T06:36:28.087Z,2.78
2023-04-15T06:39:05.500Z,3.50
2023-04-15T06:41:35.791Z,3.50
2023-04-15T06:44:07.273Z,1.98
2023-04-15T06:46:39.809Z,3.60
2023-04-15T06:49:10.036Z,1.75
2023-04-15T06:51:44.327Z,4.57
2023-04-15T06:54:15.239Z,3.22
2023-04-15T06:56:44.995Z,4.40
2023-04-15T06:59:20.006Z,2.60
2023-04-15T07:01:53.309Z,2.22
2023-04-15T07:04:28.040Z,4.70
2023-04-15T07:06:58.076Z,7.35
2023-04-15T07:09:29.750Z,3.00
2023-04-15T07:12:00.098Z,5.30
2023-04-15T07:14:31.433Z,4.18
2023-04-15T07:17:01.567Z,2.38
2023-04-15T07:19:43.803Z,3.67
2023-04-15T07:22:17.801Z,3.95
2023-04-15T07:24:48.587Z,7.53
2023-04-15T07:27:24.221Z,2.33
2023-04-15T07:29:55.506Z,2.88
2023-04-15T07:32:26.393Z,2.88
2023-04-15T07:34:59.803Z,3.90
2023-04-15T07:37:59.650Z,4.93
2023-04-15T07:40:29.863Z,2.95
2023-04-15T07:43:00.790Z,5.28
2023-04-15T07:45:32.913Z,3.63
2023-04-15T07:48:19.774Z,3.70
2023-04-15T07:50:56.502Z,3.80
2023-04-15T07:53:31.744Z,3.35
2023-04-15T07:56:11.594Z,3.67
2023-04-15T07:58:59.968Z,3.35
2023-04-15T08:02:03.775Z,3.58
2023-04-15T08:04:43.892Z,4.55
2023-04-15T08:07:22.410Z,8.43
2023-04-15T08:09:52.900Z,4.03
2023-04-15T08:12:26.380Z,5.22
2023-04-15T08:16:22.068Z,5.80
2023-04-15T08:18:18.720Z,3.35
2023-04-15T08:24:03.350Z,5.32
2023-04-15T08:26:34.343Z,6.00
2023-04-15T08:29:05.132Z,3.80
2023-04-15T08:31:49.135Z,3.45
2023-04-15T08:34:20.609Z,4.70
2023-04-15T08:37:15.114Z,4.55
2023-04-15T08:39:49.594Z,3.10
2023-04-15T08:42:27.628Z,3.42
2023-04-15T08:45:02.759Z,5.85
2023-04-15T08:47:33.463Z,5.18
2023-04-15T08:50:12.419Z,3.67
2023-04-15T08:52:42.676Z,4.95
2023-04-15T08:55:19.302Z,2.83
2023-04-15T08:58:02.694Z,3.55
2023-04-15T09:00:33.764Z,5.72
2023-04-15T09:03:06.901Z,4.22
2023-04-15T09:05:42.512Z,6.35
2023-04-15T09:08:17.272Z,6.53
2023-04-15T09:10:56.245Z,7.40
2023-04-15T09:13:26.698Z,6.03
2023-04-15T09:15:58.679Z,6.78
2023-04-15T09:18:35.387Z,6.10
2023-04-15T09:21:20.783Z,4.28
2023-04-15T09:27:55.714Z,4.57
2023-04-15T09:30:26.210Z,4.07
2023-04-15T09:33:21.551Z,4.40
2023-04-15T09:36:05.757Z,4.13
2023-04-15T09:38:57.319Z,3.80
2023-04-15T09:41:29.023Z,4.50
2023-04-15T09:44:11.804Z,5.45
2023-04-15T09:46:45.695Z,2.30
2023-04-15T09:49:16.267Z,4.90
2023-04-15T09:51:57.541Z,3.05
2023-04-15T09:54:53.052Z,4.80
2023-04-15T09:57:23.807Z,10.85
2023-04-15T09:59:55.168Z,10.73
2023-04-15T10:02:26.283Z,5.97
2023-04-15T10:04:57.431Z,5.07
2023-04-15T10:07:34.364Z,3.80
2023-04-15T10:10:09.726Z,4.10
2023-04-15T10:12:42.805Z,6.32
2023-04-15T10:15:17.741Z,4.57
2023-04-15T10:17:52.228Z,3.92
2023-04-15T10:20:24.140Z,7.88
2023-04-15T10:22:55.077Z,4.47
2023-04-15T10:25:28.706Z,4.25
2023-04-15T10:27:59.094Z,6.05
2023-04-15T10:30:29.320Z,5.05
2023-04-15T10:32:59.116Z,5.93
2023-04-15T10:35:30.831Z,8.18
2023-04-15T10:38:00.624Z,3.58
2023-04-15T10:40:33.500Z,3.70
2023-04-15T10:43:04.029Z,4.90
2023-04-15T10:45:37.015Z,3.67
2023-04-15T10:48:16.812Z,4.93
2023-04-15T10:51:09.606Z,4.72
2023-04-15T10:54:23.947Z,6.50
2023-04-15T10:57:18.839Z,5.10
2023-04-15T11:00:12.671Z,4.53
2023-04-15T11:02:46.817Z,6.63
2023-04-15T11:05:31.106Z,2.42
2023-04-15T11:08:01.015Z,4.95
2023-04-15T11:10:55.555Z,4.75
2023-04-15T11:13:34.462Z,3.92
2023-04-15T11:16:05.103Z,6.00
2023-04-15T11:18:35.944Z,3.70
2023-04-15T11:21:07.922Z,5.05
2023-04-15T11:23:44.291Z,6.97
2023-04-15T11:26:18.161Z,2.78
2023-04-15T11:28:49.445Z,6.68
2023-04-15T11:31:20.299Z,4.43
2023-04-15T11:33:56.847Z,8.82
2023-04-15T11:36:28.529Z,8.75
2023-04-15T11:39:00.639Z,7.00
2023-04-15T11:41:30.643Z,3.78
2023-04-15T11:44:05.794Z,3.72
2023-04-15T11:46:35.635Z,6.60
2023-04-15T11:49:06.101Z,5.72
2023-04-15T11:51:38.021Z,5.28
2023-04-15T11:54:09.702Z,5.78
2023-04-15T11:56:38.201Z,7.35
2023-04-15T11:59:08.024Z,7.15
2023-04-15T12:01:39.560Z,3.90
2023-04-15T12:04:13.582Z,7.80
2023-04-15T12:06:42.501Z,7.18
2023-04-15T12:09:12.594Z,5.18
2023-04-15T12:11:43.591Z,4.47
2023-04-15T12:14:22.529Z,5.63
2023-04-15T12:16:54.168Z,7.57
2023-04-15T12:19:30.419Z,4.50
2023-04-15T12:22:01.388Z,5.93
2023-04-15T12:24:33.556Z,7.07
2023-04-15T12:27:09.337Z,10.00
2023-04-15T12:29:43.256Z,4.72
2023-04-15T12:32:13.427Z,4.95
2023-04-15T12:35:11.940Z,7.60
2023-04-15T12:37:43.913Z,6.82
2023-04-15T12:40:18.464Z,8.00
2023-04-15T12:42:49.542Z,5.30
2023-04-15T12:45:19.608Z,9.15
2023-04-15T12:47:48.506Z,7.30
2023-04-15T12:50:17.840Z,4.65
2023-04-15T12:52:51.917Z,4.45
2023-04-15T12:55:20.732Z,5.25
2023-04-15T13:00:22.456Z,8.27
2023-04-15T13:02:51.509Z,7.20
2023-04-15T13:07:51.130Z,3.90
2023-04-15T13:10:21.099Z,6.80
2023-04-15T13:12:54.124Z,6.18
2023-04-15T13:15:26.162Z,4.97
2023-04-15T13:17:54.909Z,6.13
2023-04-15T13:20:26.744Z,6.30
2023-04-15T13:22:55.784Z,6.53
2023-04-15T13:25:28.040Z,7.65
2023-04-15T13:27:57.805Z,8.00
2023-04-15T13:30:29.094Z,8.38
2023-04-15T13:32:57.767Z,9.43
2023-04-15T13:35:26.954Z,7.80
2023-04-15T13:37:56.422Z,5.28
2023-04-15T13:40:25.109Z,8.48
2023-04-15T13:42:53.678Z,3.03
2023-04-15T13:45:22.568Z,6.43
2023-04-15T13:50:29.665Z,6.10
2023-04-15T13:52:58.372Z,5.75
2023-04-15T13:55:28.768Z,7.30
2023-04-15T13:57:58.600Z,8.80
2023-04-15T14:00:27.183Z,5.43
2023-04-15T14:02:57.436Z,5.13
2023-04-15T14:05:27.878Z,7.80
2023-04-15T14:08:00.537Z,6.15
2023-04-15T14:10:29.169Z,6.35
2023-04-15T14:12:57.797Z,5.30
2023-04-15T14:15:26.159Z,4.93
2023-04-15T14:17:55.538Z,5.70
2023-04-15T14:20:25.476Z,4.70
2023-04-15T14:22:56.739Z,4.28
2023-04-15T14:25:33.825Z,5.57
2023-04-15T14:28:03.936Z,5.57
2023-04-15T14:30:32.551Z,5.10
2023-04-15T14:33:01.200Z,4.45
2023-04-15T14:35:31.249Z,6.10
2023-04-15T14:37:59.792Z,5.68
2023-04-15T14:40:28.208Z,8.75
2023-04-15T14:42:56.658Z,2.88
2023-04-15T14:45:25.107Z,4.25
2023-04-15T14:47:54.307Z,4.20
2023-04-15T14:50:23.309Z,5.72
2023-04-15T14:52:53.277Z,7.20
2023-04-15T14:55:36.512Z,7.53
2023-04-15T14:58:11.362Z,6.55
2023-04-15T15:00:45.341Z,7.45
2023-04-15T15:03:14.885Z,6.55
2023-04-15T15:05:47.920Z,5.07
2023-04-15T15:08:20.532Z,6.40
2023-04-15T15:10:50.021Z,4.72
2023-04-15T15:13:19.642Z,10.82
2023-04-15T15:15:54.050Z,3.38
2023-04-15T15:18:30.470Z,7.93
2023-04-15T15:21:01.191Z,6.75
2023-04-15T15:23:32.166Z,8.45
2023-04-15T15:26:00.829Z,8.07
2023-04-15T15:28:29.421Z,4.55
2023-04-15T15:31:00.722Z,7.82
2023-04-15T15:33:30.322Z,8.48
2023-04-15T15:36:04.478Z,6.63
2023-04-15T15:38:34.496Z,5.82
2023-04-15T15:41:03.189Z,5.70
2023-04-15T15:43:31.835Z,10.85
2023-04-15T15:46:00.987Z,9.15
2023-04-15T15:48:32.155Z,6.93
2023-04-15T15:51:04.432Z,13.82
2023-04-15T15:53:37.114Z,8.40
2023-04-15T15:56:06.385Z,10.27
2023-04-15T15:58:35.278Z,9.55
2023-04-15T16:01:12.822Z,9.25
2023-04-15T16:04:52.349Z,9.57
2023-04-15T16:10:58.240Z,9.23
2023-04-15T16:13:50.366Z,10.10
2023-04-15T16:24:45.218Z,11.60
2023-04-15T16:30:26.401Z,11.45
2023-04-15T16:35:54.216Z,11.88
2023-04-15T16:38:25.840Z,12.13
2023-04-15T16:41:02.679Z,13.02
2023-04-15T16:43:37.241Z,8.70
2023-04-15T16:46:05.789Z,10.60
2023-04-15T16:48:58.717Z,11.35
2023-04-15T16:52:01.638Z,17.90
2023-04-15T16:54:43.844Z,9.25
2023-04-15T16:57:25.903Z,11.05
2023-04-15T17:17:06.286Z,9.55
2023-04-15T17:19:39.627Z,13.10
2023-04-15T17:22:15.777Z,12.95
2023-04-15T17:24:52.999Z,11.95
2023-04-15T17:31:16.394Z,11.02
2023-04-15T17:34:15.927Z,10.48
2023-04-15T17:38:29.481Z,7.30
2023-04-15T17:42:10.658Z,11.25
2023-04-15T17:46:06.048Z,11.18
2023-04-15T17:49:11.967Z,10.70
2023-04-15T17:52:00.539Z,13.07
2023-04-15T17:54:52.017Z,8.40
2023-04-15T17:57:40.568Z,9.80
2023-04-15T18:03:17.791Z,9.57
2023-04-15T18:06:14.440Z,8.35
2023-04-15T18:09:03.427Z,10.95
2023-04-15T18:11:52.332Z,11.20
2023-04-15T18:17:33.838Z,11.25
2023-04-15T18:20:16.897Z,6.57
2023-04-15T18:22:51.046Z,9.57
2023-04-15T18:25:20.168Z,9.65
2023-04-15T18:27:49.417Z,8.95
2023-04-15T18:30:18.301Z,9.25
2023-04-15T18:32:47.031Z,8.40
2023-04-15T18:35:17.225Z,10.60
2023-04-15T18:37:45.950Z,11.07
2023-04-15T18:40:19.387Z,9.98
2023-04-15T18:42:52.721Z,9.73
2023-04-15T18:45:31.618Z,6.93
2023-04-15T18:48:09.300Z,9.52
2023-04-15T18:50:38.538Z,7.53
2023-04-15T18:53:07.027Z,8.10
2023-04-15T18:55:47.210Z,9.75
2023-04-15T18:58:15.740Z,7.35
2023-04-15T19:00:44.458Z,9.02
2023-04-15T19:03:13.035Z,9.73
2023-04-15T19:05:41.578Z,8.13
2023-04-15T19:08:13.395Z,8.38
2023-04-15T19:10:46.476Z,12.52
2023-04-15T19:13:18.732Z,9.30
2023-04-15T19:15:49.940Z,11.43
2023-04-15T19:18:18.598Z,10.02
2023-04-15T19:20:47.327Z,8.10
2023-04-15T19:25:48.087Z,9.55
2023-04-15T19:28:16.547Z,10.60
2023-04-15T19:30:45.059Z,5.55
2023-04-15T19:33:13.946Z,9.05
2023-04-15T19:35:42.357Z,7.47
2023-04-15T19:38:11.114Z,5.63
2023-04-15T19:40:39.968Z,6.65
2023-04-15T19:43:09.909Z,6.20
2023-04-15T19:45:40.272Z,6.78
2023-04-15T19:48:09.582Z,4.65
2023-04-15T19:50:38.132Z,7.05
2023-04-15T19:53:08.397Z,5.95
2023-04-15T19:55:36.879Z,7.05
2023-04-15T19:58:09.794Z,8.82
2023-04-15T20:00:42.811Z,7.05
2023-04-15T20:03:12.117Z,7.40
2023-04-15T20:05:40.999Z,5.05
2023-04-15T20:08:09.470Z,9.70
2023-04-15T20:10:38.131Z,7.75
2023-04-15T20:15:41.983Z,7.88
2023-04-15T20:18:10.511Z,7.15
2023-04-15T20:20:41.054Z,8.50
2023-04-15T20:23:09.689Z,5.65
2023-04-15T20:25:38.140Z,8.20
2023-04-15T20:28:06.595Z,9.27
2023-04-15T20:30:39.397Z,8.20
2023-04-15T20:33:09.267Z,8.57
2023-04-15T20:35:37.992Z,9.55
2023-04-15T20:38:06.392Z,7.60
2023-04-15T20:40:34.930Z,8.15
2023-04-15T20:43:03.492Z,7.68
2023-04-15T20:45:31.909Z,6.13
2023-04-15T20:48:02.237Z,6.07
2023-04-15T20:50:33.014Z,9.07
2023-04-15T20:53:04.055Z,6.90
2023-04-15T20:55:32.615Z,9.50
2023-04-15T20:58:01.062Z,10.68
2023-04-15T21:00:29.503Z,8.73
2023-04-15T21:02:58.002Z,6.88
2023-04-15T21:05:26.437Z,10.65
2023-04-15T21:07:56.487Z,8.20
2023-04-15T21:10:25.391Z,10.55
2023-04-15T21:15:21.913Z,7.28
2023-04-15T21:17:53.392Z,6.82
2023-04-15T21:20:21.915Z,6.65
2023-04-15T21:22:50.786Z,7.90
2023-04-15T21:27:49.260Z,9.02
2023-04-15T21:30:17.761Z,9.60
2023-04-15T21:32:46.188Z,6.13
2023-04-15T21:35:14.787Z,9.70
2023-04-15T21:37:43.490Z,8.05
2023-04-15T21:42:43.487Z,6.82
2023-04-15T21:45:12.924Z,7.75
2023-04-15T21:48:04.915Z,6.63
2023-04-15T21:50:33.444Z,5.93
2023-04-15T21:53:01.942Z,8.60
2023-04-15T21:55:31.556Z,6.28
2023-04-15T21:58:01.411Z,5.95
2023-04-15T22:00:32.488Z,7.93
2023-04-15T22:03:01.076Z,6.32
2023-04-15T22:05:29.567Z,8.93
2023-04-15T22:07:59.127Z,7.30
2023-04-15T22:10:28.759Z,10.73
2023-04-15T22:13:02.508Z,8.82
2023-04-15T22:15:38.284Z,6.97
2023-04-15T22:18:07.197Z,6.70
2023-04-15T22:23:07.929Z,6.05
2023-04-15T22:25:37.257Z,9.13
2023-04-15T22:28:06.978Z,9.63
2023-04-15T22:30:38.950Z,9.15
2023-04-15T22:33:08.338Z,14.13
2023-04-15T22:35:37.550Z,10.13
2023-04-15T22:38:06.491Z,8.50
2023-04-15T22:43:03.049Z,8.57
2023-04-15T22:45:31.582Z,7.05
2023-04-15T22:48:02.704Z,6.72
2023-04-15T22:50:31.154Z,7.20
2023-04-15T22:52:59.631Z,6.95
2023-04-15T22:55:29.997Z,7.50
2023-04-15T22:57:58.623Z,10.52
2023-04-15T23:00:32.685Z,7.18
2023-04-15T23:03:02.943Z,7.28
2023-04-15T23:05:31.760Z,7.15
2023-04-15T23:08:02.829Z,8.02
2023-04-15T23:10:31.388Z,7.75
2023-04-15T23:12:59.917Z,7.50
2023-04-15T23:15:28.469Z,6.38
2023-04-15T23:18:02.372Z,10.43
2023-04-15T23:20:35.134Z,8.30
2023-04-15T23:23:03.721Z,6.30
2023-04-15T23:25:32.189Z,7.35
2023-04-15T23:28:01.114Z,7.95
2023-04-15T23:30:29.704Z,8.35
2023-04-15T23:32:58.504Z,9.25
2023-04-15T23:37:57.267Z,12.73
2023-04-15T23:40:25.777Z,10.40
2023-04-15T23:42:54.164Z,8.05
2023-04-15T23:45:22.630Z,11.18
2023-04-15T23:47:51.123Z,9.43
2023-04-15T23:50:19.649Z,9.13
2023-04-15T23:52:48.224Z,11.52
2023-04-15T23:55:19.223Z,12.57
2023-04-15T23:57:48.800Z,7.95
